Time;durP1;ratioP1;P1;durP2;ratioP2;P2;SDS_P1;SDS_P2;PMS_P1;PMS_P2;Temp;Humidity;BMP_temperature;BMP_pressure;BME280_temperature;BME280_humidity;BME280_pressure;Samples;Min_cycle;Max_cycle;Signal;HPM_P1;HPM_P2
2022/08/31 00:04:01;;;;;;;2.13;1.93;;;;;;;;;;5036945;28;20407;-76
2022/08/31 00:06:29;;;;;;;3.20;1.90;;;;;;;;;;5037052;28;20443;-75
2022/08/31 00:08:56;;;;;;;2.30;2.10;;;;;;;;;;5036509;28;20596;-76
2022/08/31 00:11:29;;;;;;;6.13;2.20;;;;;;;;;;5036822;28;20534;-76
2022/08/31 00:13:57;;;;;;;2.53;2.23;;;;;;;;;;5036888;28;20432;-76
2022/08/31 00:16:26;;;;;;;2.00;1.80;;;;;;;;;;5037089;28;20500;-77
2022/08/31 00:18:53;;;;;;;2.03;1.90;;;;;;;;;;5036464;28;20448;-76
2022/08/31 00:21:21;;;;;;;1.97;1.87;;;;;;;;;;5037264;28;20497;-76
2022/08/31 00:23:49;;;;;;;3.20;1.63;;;;;;;;;;5036449;28;20917;-76
2022/08/31 00:26:16;;;;;;;2.83;1.90;;;;;;;;;;5036273;28;20463;-76
2022/08/31 00:28:44;;;;;;;2.20;2.00;;;;;;;;;;5036210;28;20477;-76
2022/08/31 00:31:11;;;;;;;5.73;1.90;;;;;;;;;;5036921;28;20532;-75
2022/08/31 00:33:39;;;;;;;2.37;1.70;;;;;;;;;;5036229;28;20461;-76
2022/08/31 00:36:08;;;;;;;1.87;1.77;;;;;;;;;;5036003;28;20500;-75
2022/08/31 00:38:36;;;;;;;1.87;1.77;;;;;;;;;;5036485;28;20481;-76
2022/08/31 00:41:03;;;;;;;2.27;2.00;;;;;;;;;;5036071;28;20460;-75
2022/08/31 00:43:38;;;;;;;2.23;1.60;;;;;;;;;;5034865;28;20988;-75
2022/08/31 00:46:06;;;;;;;3.73;2.17;;;;;;;;;;5036033;28;20808;-75
2022/08/31 00:48:33;;;;;;;2.07;1.90;;;;;;;;;;5035831;28;20970;-76
2022/08/31 00:51:02;;;;;;;2.40;1.83;;;;;;;;;;5035794;28;20557;-76
2022/08/31 00:53:29;;;;;;;2.07;1.70;;;;;;;;;;5036077;28;20496;-76
2022/08/31 00:55:57;;;;;;;1.77;1.67;;;;;;;;;;5036135;28;20474;-76
2022/08/31 00:58:24;;;;;;;2.27;2.07;;;;;;;;;;5035959;28;20485;-76
2022/08/31 01:00:51;;;;;;;2.27;2.07;;;;;;;;;;5036004;28;20617;-76
2022/08/31 01:03:21;;;;;;;3.33;1.87;;;;;;;;;;5035913;28;20537;-76
2022/08/31 01:05:49;;;;;;;2.33;2.13;;;;;;;;;;5036201;28;20438;-76
2022/08/31 01:08:17;;;;;;;4.40;1.70;;;;;;;;;;5035291;28;20546;-76
2022/08/31 01:10:45;;;;;;;3.27;1.80;;;;;;;;;;5035822;28;20470;-76
2022/08/31 01:13:13;;;;;;;2.00;1.70;;;;;;;;;;5035662;28;20446;-76
2022/08/31 01:15:42;;;;;;;3.00;2.00;;;;;;;;;;5035417;28;20481;-76
2022/08/31 01:18:10;;;;;;;2.03;1.70;;;;;;;;;;5035641;28;20447;-76
2022/08/31 01:20:45;;;;;;;2.00;1.90;;;;;;;;;;5035793;28;20526;-76
2022/08/31 01:23:16;;;;;;;2.13;1.60;;;;;;;;;;5035239;28;20429;-76
2022/08/31 01:25:45;;;;;;;2.60;1.50;;;;;;;;;;5035268;28;20602;-76
2022/08/31 01:28:12;;;;;;;2.30;1.87;;;;;;;;;;5035124;28;20442;-76
2022/08/31 01:30:40;;;;;;;2.33;2.03;;;;;;;;;;5035086;28;20482;-77
2022/08/31 01:33:08;;;;;;;2.17;1.67;;;;;;;;;;5035006;28;20965;-76
2022/08/31 01:35:35;;;;;;;1.77;1.63;;;;;;;;;;5035305;28;20438;-76
2022/08/31 01:38:03;;;;;;;1.80;1.70;;;;;;;;;;5034919;28;20527;-75
2022/08/31 01:40:32;;;;;;;2.10;1.60;;;;;;;;;;5034773;28;20548;-76
2022/08/31 01:43:00;;;;;;;2.70;2.00;;;;;;;;;;5035085;28;20485;-75
2022/08/31 01:45:27;;;;;;;2.73;1.60;;;;;;;;;;5035150;28;20445;-75
2022/08/31 01:47:54;;;;;;;2.60;1.80;;;;;;;;;;5035021;28;20474;-75
2022/08/31 01:50:21;;;;;;;2.30;1.60;;;;;;;;;;5034687;28;20586;-75
2022/08/31 01:52:48;;;;;;;3.10;1.97;;;;;;;;;;5034663;28;20439;-75
2022/08/31 01:55:16;;;;;;;2.43;2.23;;;;;;;;;;5034958;28;20530;-74
2022/08/31 01:57:44;;;;;;;2.47;1.40;;;;;;;;;;5034533;28;20441;-75
2022/08/31 02:00:12;;;;;;;2.10;1.90;;;;;;;;;;5035068;28;20546;-74
2022/08/31 02:02:39;;;;;;;1.80;1.70;;;;;;;;;;5034406;28;20533;-75
2022/08/31 02:05:07;;;;;;;1.90;1.67;;;;;;;;;;5034778;28;20445;-75
2022/08/31 02:07:34;;;;;;;2.10;1.83;;;;;;;;;;5034643;28;20485;-75
2022/08/31 02:10:01;;;;;;;1.97;1.70;;;;;;;;;;5034880;28;20493;-75
2022/08/31 02:12:29;;;;;;;2.00;1.63;;;;;;;;;;5034249;28;20533;-75
2022/08/31 02:14:57;;;;;;;3.50;1.93;;;;;;;;;;5034629;28;20526;-76
2022/08/31 02:17:24;;;;;;;1.60;1.50;;;;;;;;;;5034198;28;20441;-75
2022/08/31 02:19:52;;;;;;;1.70;1.60;;;;;;;;;;5034859;28;20439;-75
2022/08/31 02:22:19;;;;;;;2.07;1.87;;;;;;;;;;5034477;28;20870;-75
2022/08/31 02:24:46;;;;;;;2.00;1.80;;;;;;;;;;5034403;28;20486;-75
2022/08/31 02:27:13;;;;;;;3.13;1.50;;;;;;;;;;5034713;28;20450;-75
2022/08/31 02:29:41;;;;;;;1.90;1.80;;;;;;;;;;5033926;28;20476;-75
2022/08/31 02:32:10;;;;;;;1.80;1.70;;;;;;;;;;5034331;28;20536;-75
2022/08/31 02:34:39;;;;;;;1.67;1.57;;;;;;;;;;5033936;28;20530;-76
2022/08/31 02:37:07;;;;;;;2.90;1.70;;;;;;;;;;5034367;28;20454;-75
2022/08/31 02:39:34;;;;;;;2.40;1.83;;;;;;;;;;5033663;28;20552;-75
2022/08/31 02:42:01;;;;;;;2.10;1.90;;;;;;;;;;5034191;28;20984;-77
2022/08/31 02:44:29;;;;;;;2.30;1.90;;;;;;;;;;5033688;28;20483;-76
2022/08/31 02:46:56;;;;;;;1.77;1.60;;;;;;;;;;5033749;28;20539;-76
2022/08/31 02:49:24;;;;;;;1.73;1.63;;;;;;;;;;5033918;28;20439;-76
2022/08/31 02:51:52;;;;;;;2.43;1.90;;;;;;;;;;5033961;28;20446;-76
2022/08/31 02:54:19;;;;;;;2.10;1.90;;;;;;;;;;5034043;28;20538;-76
2022/08/31 02:56:46;;;;;;;1.83;1.70;;;;;;;;;;5033979;28;20538;-76
2022/08/31 02:59:13;;;;;;;1.50;1.40;;;;;;;;;;5034030;28;20438;-76
2022/08/31 03:01:41;;;;;;;2.80;1.80;;;;;;;;;;5033519;28;20530;-76
2022/08/31 03:04:08;;;;;;;2.27;2.07;;;;;;;;;;5033740;28;20455;-76
2022/08/31 03:06:37;;;;;;;1.70;1.60;;;;;;;;;;5033231;28;20443;-77
2022/08/31 03:09:04;;;;;;;2.00;1.90;;;;;;;;;;5032964;28;20467;-76
2022/08/31 03:11:31;;;;;;;3.90;1.80;;;;;;;;;;5033641;28;20908;-76
2022/08/31 03:13:58;;;;;;;1.60;1.50;;;;;;;;;;5033300;28;20534;-76
2022/08/31 03:16:26;;;;;;;1.70;1.60;;;;;;;;;;5034143;28;20522;-76
2022/08/31 03:18:53;;;;;;;2.10;1.60;;;;;;;;;;5033221;28;20449;-77
2022/08/31 03:21:20;;;;;;;2.40;1.93;;;;;;;;;;5033241;28;20533;-77
2022/08/31 03:23:49;;;;;;;2.30;1.70;;;;;;;;;;5033809;28;20479;-77
2022/08/31 03:26:16;;;;;;;2.10;1.90;;;;;;;;;;5033127;28;21015;-76
2022/08/31 03:28:43;;;;;;;2.00;1.90;;;;;;;;;;5033064;28;20527;-76
2022/08/31 03:31:11;;;;;;;2.57;1.87;;;;;;;;;;5033341;28;20515;-76
2022/08/31 03:33:38;;;;;;;3.40;1.70;;;;;;;;;;5033783;28;20446;-76
2022/08/31 03:36:07;;;;;;;1.93;1.83;;;;;;;;;;5033319;28;20444;-76
2022/08/31 03:38:34;;;;;;;1.80;1.70;;;;;;;;;;5033175;28;20466;-76
2022/08/31 03:41:03;;;;;;;1.93;1.60;;;;;;;;;;5033043;28;20534;-77
2022/08/31 03:43:30;;;;;;;1.97;1.77;;;;;;;;;;5032979;28;20482;-72
2022/08/31 03:45:57;;;;;;;2.20;2.00;;;;;;;;;;5033650;28;20558;-76
2022/08/31 03:48:25;;;;;;;1.87;1.77;;;;;;;;;;5033070;28;20532;-75
2022/08/31 03:50:53;;;;;;;4.30;1.50;;;;;;;;;;5033060;28;20487;-76
2022/08/31 03:53:20;;;;;;;3.77;1.90;;;;;;;;;;5033002;28;20451;-76
2022/08/31 03:55:47;;;;;;;1.80;1.70;;;;;;;;;;5032566;28;20547;-75
2022/08/31 03:58:16;;;;;;;1.60;1.50;;;;;;;;;;5032419;28;20476;-75
2022/08/31 04:00:43;;;;;;;1.70;1.60;;;;;;;;;;5032158;28;20946;-75
2022/08/31 04:03:12;;;;;;;2.93;1.70;;;;;;;;;;5032096;28;20944;-75
2022/08/31 04:05:42;;;;;;;1.60;1.50;;;;;;;;;;5032500;28;20443;-74
2022/08/31 04:08:10;;;;;;;3.07;1.80;;;;;;;;;;5032574;28;20855;-74
2022/08/31 04:10:39;;;;;;;1.80;1.70;;;;;;;;;;5032061;28;20501;-74
2022/08/31 04:13:07;;;;;;;2.00;1.70;;;;;;;;;;5032640;28;20622;-75
2022/08/31 04:15:36;;;;;;;2.20;2.00;;;;;;;;;;5032472;28;20476;-74
2022/08/31 04:18:03;;;;;;;1.70;1.60;;;;;;;;;;5033808;28;20460;-74
2022/08/31 04:20:33;;;;;;;3.30;2.10;;;;;;;;;;5036372;28;20803;-74
2022/08/31 04:23:01;;;;;;;2.27;1.90;;;;;;;;;;5036707;28;20428;-75
2022/08/31 04:25:28;;;;;;;1.90;1.80;;;;;;;;;;5036627;28;20805;-75
2022/08/31 04:27:55;;;;;;;4.47;1.70;;;;;;;;;;5036509;28;20438;-75
2022/08/31 04:30:23;;;;;;;2.10;1.90;;;;;;;;;;5036439;28;20570;-74
2022/08/31 04:32:53;;;;;;;2.67;2.00;;;;;;;;;;5036513;28;20527;-75
2022/08/31 04:35:21;;;;;;;2.23;2.03;;;;;;;;;;5036409;28;20438;-74
2022/08/31 04:37:48;;;;;;;2.20;1.73;;;;;;;;;;5036215;28;20440;-75
2022/08/31 04:40:19;;;;;;;3.73;1.70;;;;;;;;;;5035649;28;20531;-74
2022/08/31 04:42:46;;;;;;;2.90;1.83;;;;;;;;;;5035941;28;20423;-75
2022/08/31 04:45:13;;;;;;;2.80;1.70;;;;;;;;;;5035927;28;20470;-74
2022/08/31 04:47:41;;;;;;;2.27;2.07;;;;;;;;;;5036263;28;20551;-74
2022/08/31 04:50:10;;;;;;;2.50;2.07;;;;;;;;;;5035699;28;20956;-74
2022/08/31 04:52:38;;;;;;;2.70;2.00;;;;;;;;;;5036461;28;21035;-73
2022/08/31 04:55:06;;;;;;;2.40;2.20;;;;;;;;;;5035983;28;20457;-74
2022/08/31 04:57:34;;;;;;;3.57;1.87;;;;;;;;;;5035531;28;20475;-74
2022/08/31 05:00:02;;;;;;;2.80;2.17;;;;;;;;;;5035722;28;20792;-73
2022/08/31 05:02:29;;;;;;;3.97;2.60;;;;;;;;;;5035773;28;20452;-75
2022/08/31 05:04:56;;;;;;;2.73;2.50;;;;;;;;;;5035881;28;20538;-73
2022/08/31 05:07:25;;;;;;;3.10;2.70;;;;;;;;;;5035895;28;20807;-73
2022/08/31 05:09:52;;;;;;;4.23;2.17;;;;;;;;;;5035440;28;20482;-76
2022/08/31 05:12:20;;;;;;;4.40;2.13;;;;;;;;;;5035698;28;20490;-76
2022/08/31 05:14:47;;;;;;;3.23;2.30;;;;;;;;;;5035676;28;20943;-76
2022/08/31 05:17:15;;;;;;;3.83;2.43;;;;;;;;;;5035502;28;20444;-71
2022/08/31 05:19:43;;;;;;;6.43;2.10;;;;;;;;;;5035511;28;20446;-70
2022/08/31 05:22:10;;;;;;;6.10;2.60;;;;;;;;;;5035204;28;20459;-70
2022/08/31 05:24:39;;;;;;;2.13;1.50;;;;;;;;;;5035812;28;20483;-70
2022/08/31 05:27:06;;;;;;;1.90;1.73;;;;;;;;;;5035159;28;20529;-71
2022/08/31 05:29:34;;;;;;;3.40;2.00;;;;;;;;;;5034627;28;20444;-71
2022/08/31 05:32:01;;;;;;;2.27;2.07;;;;;;;;;;5034998;28;21044;-70
2022/08/31 05:34:28;;;;;;;3.93;2.07;;;;;;;;;;5035819;28;20444;-70
2022/08/31 05:36:56;;;;;;;2.23;1.87;;;;;;;;;;5035272;28;20871;-70
2022/08/31 05:39:24;;;;;;;2.83;1.67;;;;;;;;;;5035080;28;20459;-70
2022/08/31 05:41:54;;;;;;;3.90;2.07;;;;;;;;;;5034883;28;21049;-70
2022/08/31 05:44:21;;;;;;;3.20;1.80;;;;;;;;;;5034860;28;20489;-70
2022/08/31 05:46:49;;;;;;;7.33;2.60;;;;;;;;;;5035034;28;20836;-70
2022/08/31 05:49:16;;;;;;;3.67;2.57;;;;;;;;;;5035484;28;20525;-70
2022/08/31 05:51:43;;;;;;;3.53;2.03;;;;;;;;;;5034609;28;20507;-71
2022/08/31 05:54:11;;;;;;;5.23;2.37;;;;;;;;;;5035048;28;20444;-70
2022/08/31 05:56:40;;;;;;;2.40;2.10;;;;;;;;;;5034880;28;20444;-70
2022/08/31 05:59:09;;;;;;;5.47;2.33;;;;;;;;;;5035057;28;20539;-70
2022/08/31 06:01:38;;;;;;;3.20;1.97;;;;;;;;;;5034708;28;20546;-70
2022/08/31 06:04:05;;;;;;;2.13;2.03;;;;;;;;;;5034558;28;20462;-71
2022/08/31 06:06:33;;;;;;;4.97;4.13;;;;;;;;;;5034382;28;20949;-70
2022/08/31 06:09:00;;;;;;;4.60;3.10;;;;;;;;;;5034274;28;20571;-70
2022/08/31 06:11:29;;;;;;;3.30;1.80;;;;;;;;;;5034201;28;20482;-70
2022/08/31 06:13:57;;;;;;;4.53;2.30;;;;;;;;;;5034553;28;20796;-70
2022/08/31 06:16:26;;;;;;;2.33;1.93;;;;;;;;;;5034514;28;20443;-70
2022/08/31 06:18:54;;;;;;;3.27;2.00;;;;;;;;;;5034638;28;20542;-70
2022/08/31 06:21:22;;;;;;;3.23;2.57;;;;;;;;;;5034204;28;20528;-70
2022/08/31 06:23:50;;;;;;;5.53;2.60;;;;;;;;;;5034477;28;20534;-70
2022/08/31 06:26:19;;;;;;;11.93;2.93;;;;;;;;;;5034013;28;20472;-70
2022/08/31 06:28:47;;;;;;;3.10;2.57;;;;;;;;;;5034109;28;20439;-70
2022/08/31 06:31:17;;;;;;;2.07;1.90;;;;;;;;;;5034124;28;20570;-70
2022/08/31 06:33:46;;;;;;;3.20;1.97;;;;;;;;;;5034265;28;20446;-71
2022/08/31 06:36:14;;;;;;;2.10;2.00;;;;;;;;;;5034210;28;20446;-70
2022/08/31 06:38:42;;;;;;;2.80;1.93;;;;;;;;;;5034229;28;20557;-70
2022/08/31 06:41:14;;;;;;;2.90;2.20;;;;;;;;;;5033315;28;20448;-71
2022/08/31 06:43:41;;;;;;;3.90;2.20;;;;;;;;;;5033696;28;20529;-71
2022/08/31 06:46:08;;;;;;;2.87;2.30;;;;;;;;;;5033863;28;20451;-70
2022/08/31 06:48:36;;;;;;;3.60;2.40;;;;;;;;;;5033811;28;20486;-70
2022/08/31 06:51:06;;;;;;;4.93;3.13;;;;;;;;;;5033415;28;20482;-70
2022/08/31 06:53:34;;;;;;;10.60;2.43;;;;;;;;;;5033599;28;20422;-70
2022/08/31 06:56:04;;;;;;;3.40;2.07;;;;;;;;;;5034223;28;20442;-70
2022/08/31 06:58:31;;;;;;;8.73;2.10;;;;;;;;;;5033887;28;20958;-70
2022/08/31 07:00:58;;;;;;;3.00;2.00;;;;;;;;;;5033774;28;20483;-70
2022/08/31 07:03:32;;;;;;;4.20;2.90;;;;;;;;;;5033622;28;20521;-70
2022/08/31 07:05:59;;;;;;;5.77;2.73;;;;;;;;;;5033781;28;20439;-70
2022/08/31 07:08:28;;;;;;;3.10;2.80;;;;;;;;;;5033292;28;20438;-70
2022/08/31 07:10:55;;;;;;;6.20;2.50;;;;;;;;;;5033825;28;20470;-70
2022/08/31 07:13:22;;;;;;;3.83;2.43;;;;;;;;;;5033505;28;20443;-70
2022/08/31 07:15:49;;;;;;;5.43;2.30;;;;;;;;;;5033639;28;20466;-70
2022/08/31 07:18:17;;;;;;;2.50;2.30;;;;;;;;;;5033350;28;20442;-70
2022/08/31 07:20:44;;;;;;;4.10;2.57;;;;;;;;;;5033522;28;20529;-71
2022/08/31 07:23:11;;;;;;;5.43;2.43;;;;;;;;;;5033310;28;21026;-70
2022/08/31 07:25:41;;;;;;;6.60;2.73;;;;;;;;;;5033520;28;20546;-70
2022/08/31 07:28:09;;;;;;;7.33;2.30;;;;;;;;;;5033369;28;20442;-71
2022/08/31 07:30:41;;;;;;;3.33;3.03;;;;;;;;;;5033223;28;20483;-70
2022/08/31 07:33:09;;;;;;;2.37;2.17;;;;;;;;;;5033459;28;20466;-70
2022/08/31 07:35:36;;;;;;;2.40;2.20;;;;;;;;;;5034314;28;20439;-71
2022/08/31 07:43:36;;;;;;;5.87;2.63;;;;;;;;;;5033159;28;20491;-70
2022/08/31 07:46:03;;;;;;;3.87;2.50;;;;;;;;;;5033845;28;20533;-70
2022/08/31 07:48:31;;;;;;;3.30;2.40;;;;;;;;;;5032913;28;20484;-70
2022/08/31 07:50:58;;;;;;;3.00;2.33;;;;;;;;;;5033120;28;20457;-71
2022/08/31 07:53:25;;;;;;;3.53;3.10;;;;;;;;;;5034741;28;20452;-70
2022/08/31 07:55:55;;;;;;;2.90;2.63;;;;;;;;;;5037208;28;20504;-70
2022/08/31 07:58:22;;;;;;;5.40;3.90;;;;;;;;;;5037259;28;20493;-71
2022/08/31 08:00:50;;;;;;;2.67;2.47;;;;;;;;;;5036875;28;20539;-70
2022/08/31 08:03:18;;;;;;;5.97;2.70;;;;;;;;;;5037163;28;20475;-70
2022/08/31 08:05:46;;;;;;;3.17;2.50;;;;;;;;;;5037461;28;20471;-71
2022/08/31 08:08:13;;;;;;;2.87;2.60;;;;;;;;;;5036403;28;20431;-69
2022/08/31 08:10:46;;;;;;;5.90;2.93;;;;;;;;;;5035852;28;20459;-70
2022/08/31 08:13:18;;;;;;;4.33;2.80;;;;;;;;;;5036456;28;20979;-70
2022/08/31 08:15:47;;;;;;;3.77;2.93;;;;;;;;;;5036556;28;20428;-70
2022/08/31 08:18:14;;;;;;;5.03;3.67;;;;;;;;;;5037022;28;20449;-71
2022/08/31 08:20:42;;;;;;;12.27;3.43;;;;;;;;;;5036521;28;20446;-72
2022/08/31 08:23:11;;;;;;;8.80;3.20;;;;;;;;;;5036602;28;20501;-71
2022/08/31 08:25:39;;;;;;;4.20;3.50;;;;;;;;;;5036688;28;20557;-71
2022/08/31 08:28:06;;;;;;;4.67;2.73;;;;;;;;;;5036414;28;20858;-71
2022/08/31 08:30:35;;;;;;;3.73;2.80;;;;;;;;;;5037292;28;20448;-71
2022/08/31 08:33:02;;;;;;;5.60;3.33;;;;;;;;;;5036215;28;20477;-71
2022/08/31 08:35:31;;;;;;;4.33;3.17;;;;;;;;;;5036512;28;20477;-71
2022/08/31 08:37:58;;;;;;;8.07;4.10;;;;;;;;;;5035996;28;21080;-70
2022/08/31 08:40:30;;;;;;;4.80;2.87;;;;;;;;;;5035947;28;20492;-70
2022/08/31 08:42:58;;;;;;;10.13;3.10;;;;;;;;;;5036923;28;20524;-70
2022/08/31 08:45:26;;;;;;;6.70;3.33;;;;;;;;;;5036348;28;20437;-70
2022/08/31 08:47:55;;;;;;;3.13;2.93;;;;;;;;;;5035829;28;20536;-71
2022/08/31 08:50:26;;;;;;;5.33;2.63;;;;;;;;;;5036393;28;20559;-71
2022/08/31 08:52:55;;;;;;;4.17;3.30;;;;;;;;;;5035711;28;20500;-70
2022/08/31 08:55:27;;;;;;;3.90;3.50;;;;;;;;;;5036928;28;20435;-70
2022/08/31 08:57:55;;;;;;;8.77;3.97;;;;;;;;;;5036186;28;20463;-70
2022/08/31 09:00:24;;;;;;;4.00;3.40;;;;;;;;;;5036057;28;20452;-70
2022/08/31 09:02:56;;;;;;;7.03;3.83;;;;;;;;;;5035580;28;20539;-70
2022/08/31 09:05:33;;;;;;;7.63;3.80;;;;;;;;;;5034751;28;20429;-70
2022/08/31 09:08:15;;;;;;;5.87;3.03;;;;;;;;;;5035486;28;20425;-70
2022/08/31 09:10:44;;;;;;;6.47;3.70;;;;;;;;;;5036299;28;20446;-69
2022/08/31 09:13:19;;;;;;;5.03;3.60;;;;;;;;;;5035614;28;20477;-69
2022/08/31 09:15:51;;;;;;;5.63;3.53;;;;;;;;;;5035494;28;20431;-69
2022/08/31 09:18:25;;;;;;;6.57;5.07;;;;;;;;;;5035613;28;20431;-70
2022/08/31 09:21:16;;;;;;;5.80;3.30;;;;;;;;;;5035689;28;20428;-70
2022/08/31 09:23:48;;;;;;;3.60;3.30;;;;;;;;;;5036184;28;20521;-70
2022/08/31 09:26:16;;;;;;;3.77;3.47;;;;;;;;;;5035933;28;20916;-70
2022/08/31 09:28:45;;;;;;;5.20;4.37;;;;;;;;;;5035086;28;20472;-70
2022/08/31 09:31:28;;;;;;;5.00;3.73;;;;;;;;;;5035445;28;20471;-70
2022/08/31 09:33:55;;;;;;;6.13;3.70;;;;;;;;;;5035090;28;20489;-69
2022/08/31 09:36:24;;;;;;;5.20;3.00;;;;;;;;;;5035320;28;20444;-70
2022/08/31 09:38:53;;;;;;;3.90;3.50;;;;;;;;;;5035845;28;20456;-70
2022/08/31 09:41:23;;;;;;;2.90;2.60;;;;;;;;;;5035862;28;20436;-70
2022/08/31 09:43:50;;;;;;;5.67;3.57;;;;;;;;;;5035686;28;20475;-70
2022/08/31 09:46:24;;;;;;;4.27;3.60;;;;;;;;;;5034934;28;20447;-70
2022/08/31 09:48:54;;;;;;;5.20;3.70;;;;;;;;;;5035093;28;20431;-70
2022/08/31 09:51:24;;;;;;;5.23;3.37;;;;;;;;;;5035175;28;20502;-69
2022/08/31 09:56:54;;;;;;;4.70;3.43;;;;;;;;;;5035247;28;20440;-69
2022/08/31 09:59:40;;;;;;;4.87;3.20;;;;;;;;;;5034688;28;20434;-70
2022/08/31 10:02:10;;;;;;;4.57;2.90;;;;;;;;;;5034955;28;20437;-70
2022/08/31 10:04:46;;;;;;;3.63;2.73;;;;;;;;;;5034711;28;20432;-70
2022/08/31 10:07:23;;;;;;;3.30;3.00;;;;;;;;;;5034589;28;20486;-69
2022/08/31 10:09:55;;;;;;;9.57;3.27;;;;;;;;;;5034419;28;20886;-69
2022/08/31 10:12:23;;;;;;;3.17;2.93;;;;;;;;;;5035517;28;20878;-69
2022/08/31 10:14:53;;;;;;;5.90;4.30;;;;;;;;;;5034626;28;20472;-70
2022/08/31 10:17:24;;;;;;;5.83;3.70;;;;;;;;;;5034425;28;20499;-71
2022/08/31 10:19:56;;;;;;;4.00;3.50;;;;;;;;;;5034521;28;20521;-70
2022/08/31 10:22:28;;;;;;;3.80;2.90;;;;;;;;;;5034232;28;20431;-71
2022/08/31 10:25:20;;;;;;;6.13;3.10;;;;;;;;;;5034267;28;20529;-70
2022/08/31 10:27:48;;;;;;;2.80;2.57;;;;;;;;;;5034646;28;20430;-70
2022/08/31 10:30:24;;;;;;;2.90;2.70;;;;;;;;;;5034228;28;20461;-70
2022/08/31 10:32:54;;;;;;;6.00;2.80;;;;;;;;;;5034122;28;20477;-71
2022/08/31 10:35:24;;;;;;;13.60;2.93;;;;;;;;;;5033863;28;20465;-69
2022/08/31 10:37:57;;;;;;;3.63;3.20;;;;;;;;;;5034170;28;20500;-69
2022/08/31 10:40:28;;;;;;;5.43;4.00;;;;;;;;;;5033819;28;20457;-69
2022/08/31 10:43:07;;;;;;;8.00;4.03;;;;;;;;;;5034660;28;20440;-70
2022/08/31 10:45:35;;;;;;;5.27;3.00;;;;;;;;;;5034053;28;20480;-70
2022/08/31 10:48:03;;;;;;;6.53;2.97;;;;;;;;;;5033727;28;20491;-69
2022/08/31 10:50:36;;;;;;;8.63;4.40;;;;;;;;;;5033558;28;21020;-70
2022/08/31 10:53:12;;;;;;;4.70;3.10;;;;;;;;;;5033576;28;20468;-69
2022/08/31 10:55:45;;;;;;;4.67;2.43;;;;;;;;;;5033581;28;20494;-69
2022/08/31 10:58:19;;;;;;;5.63;2.50;;;;;;;;;;5034585;28;20434;-69
2022/08/31 11:00:49;;;;;;;6.73;3.00;;;;;;;;;;5033429;28;20437;-70
2022/08/31 11:03:21;;;;;;;4.00;2.73;;;;;;;;;;5034484;28;20492;-71
2022/08/31 11:05:51;;;;;;;3.10;2.90;;;;;;;;;;5033880;28;20434;-71
2022/08/31 11:08:34;;;;;;;3.03;2.63;;;;;;;;;;5033455;28;20517;-69
2022/08/31 11:11:05;;;;;;;5.20;3.03;;;;;;;;;;5033407;28;20904;-71
2022/08/31 11:13:40;;;;;;;3.80;3.00;;;;;;;;;;5033601;28;20469;-70
2022/08/31 11:16:16;;;;;;;3.97;3.10;;;;;;;;;;5033241;28;20521;-70
2022/08/31 11:18:55;;;;;;;5.00;4.50;;;;;;;;;;5034397;28;20438;-70
2022/08/31 11:21:34;;;;;;;3.93;2.90;;;;;;;;;;5033465;28;20521;-71
2022/08/31 11:24:11;;;;;;;3.03;2.83;;;;;;;;;;5033573;28;20438;-70
2022/08/31 11:26:59;;;;;;;2.90;2.67;;;;;;;;;;5032952;28;20937;-71
2022/08/31 11:29:35;;;;;;;2.90;2.63;;;;;;;;;;5028633;28;20486;-70
2022/08/31 11:32:06;;;;;;;3.93;3.07;;;;;;;;;;5033365;28;20525;-71
2022/08/31 11:34:45;;;;;;;5.03;2.53;;;;;;;;;;5034270;28;20747;-71
2022/08/31 11:37:13;;;;;;;2.87;2.67;;;;;;;;;;5033903;28;20438;-71
2022/08/31 11:39:44;;;;;;;4.67;2.93;;;;;;;;;;5033377;28;20462;-71
2022/08/31 11:42:26;;;;;;;3.67;2.70;;;;;;;;;;5033425;28;20509;-71
2022/08/31 11:45:04;;;;;;;3.67;3.13;;;;;;;;;;5032868;28;20441;-72
2022/08/31 11:47:40;;;;;;;2.73;2.53;;;;;;;;;;5033395;28;20430;-71
2022/08/31 11:50:28;;;;;;;5.20;3.70;;;;;;;;;;5033092;28;20907;-71
2022/08/31 11:52:58;;;;;;;3.03;2.67;;;;;;;;;;5032751;28;20489;-71
2022/08/31 11:55:28;;;;;;;7.70;2.63;;;;;;;;;;5033329;28;20431;-72
2022/08/31 11:58:19;;;;;;;7.10;3.10;;;;;;;;;;5033576;28;20521;-71
2022/08/31 12:00:50;;;;;;;4.37;2.90;;;;;;;;;;5018317;28;20559;-71
2022/08/31 12:03:49;;;;;;;8.87;5.13;;;;;;;;;;5033586;28;20458;-70
2022/08/31 12:06:36;;;;;;;4.43;2.60;;;;;;;;;;4972067;28;20425;-71
2022/08/31 12:09:13;;;;;;;8.23;2.87;;;;;;;;;;5027386;28;20506;-70
2022/08/31 12:11:47;;;;;;;2.77;2.57;;;;;;;;;;5033258;28;20521;-71
2022/08/31 12:14:20;;;;;;;5.00;2.73;;;;;;;;;;5032709;28;20463;-71
2022/08/31 12:17:08;;;;;;;3.67;2.73;;;;;;;;;;5033289;28;20477;-71
2022/08/31 12:20:02;;;;;;;3.90;2.30;;;;;;;;;;5033243;28;20442;-70
2022/08/31 12:25:35;;;;;;;4.97;3.00;;;;;;;;;;5032977;28;20417;-71
2022/08/31 12:28:07;;;;;;;2.87;2.37;;;;;;;;;;5032629;28;20986;-70
2022/08/31 12:30:35;;;;;;;3.27;2.00;;;;;;;;;;5033331;28;20511;-71
2022/08/31 12:33:06;;;;;;;2.30;2.20;;;;;;;;;;5032862;28;20570;-71
2022/08/31 12:35:33;;;;;;;4.07;2.50;;;;;;;;;;5033858;28;20442;-71
2022/08/31 12:38:01;;;;;;;2.70;2.40;;;;;;;;;;5032935;28;20537;-71
2022/08/31 12:40:29;;;;;;;3.50;2.23;;;;;;;;;;5034147;28;20533;-71
2022/08/31 12:42:59;;;;;;;3.43;2.13;;;;;;;;;;5036095;28;20506;-72
2022/08/31 12:45:35;;;;;;;4.10;2.50;;;;;;;;;;5035964;28;20467;-70
2022/08/31 12:48:07;;;;;;;2.50;2.30;;;;;;;;;;5036247;28;20425;-71
2022/08/31 12:50:38;;;;;;;3.10;2.20;;;;;;;;;;5037143;28;20522;-71
2022/08/31 12:53:26;;;;;;;1.90;1.80;;;;;;;;;;5036104;28;20473;-73
2022/08/31 12:55:58;;;;;;;2.30;2.10;;;;;;;;;;5031128;28;20548;-74
2022/08/31 12:58:40;;;;;;;2.00;1.90;;;;;;;;;;5036113;28;20461;-73
2022/08/31 13:01:09;;;;;;;5.57;2.70;;;;;;;;;;5033936;28;20559;-73
2022/08/31 13:03:38;;;;;;;3.73;2.30;;;;;;;;;;5035471;28;20528;-72
2022/08/31 13:06:07;;;;;;;10.90;2.13;;;;;;;;;;5035455;28;20540;-73
2022/08/31 13:08:36;;;;;;;5.00;2.30;;;;;;;;;;5035651;28;20507;-73
2022/08/31 13:11:13;;;;;;;6.40;2.60;;;;;;;;;;5035789;28;20988;-73
2022/08/31 13:13:40;;;;;;;7.90;2.67;;;;;;;;;;5035932;28;20478;-73
2022/08/31 13:16:07;;;;;;;2.47;2.20;;;;;;;;;;5034883;28;20471;-72
2022/08/31 13:18:36;;;;;;;3.83;2.27;;;;;;;;;;5034599;28;20448;-73
2022/08/31 13:21:05;;;;;;;5.27;2.17;;;;;;;;;;5035046;28;20542;-74
2022/08/31 13:23:35;;;;;;;3.10;2.00;;;;;;;;;;5034959;28;20773;-73
2022/08/31 13:26:13;;;;;;;3.00;2.70;;;;;;;;;;5035075;28;20515;-72
2022/08/31 13:28:41;;;;;;;3.67;2.37;;;;;;;;;;5034864;28;20509;-73
2022/08/31 13:31:09;;;;;;;3.10;2.17;;;;;;;;;;5034794;28;20625;-73
2022/08/31 13:33:38;;;;;;;7.00;2.20;;;;;;;;;;5034964;28;20480;-72
2022/08/31 13:36:09;;;;;;;5.33;2.17;;;;;;;;;;5034351;28;20474;-74
2022/08/31 13:38:41;;;;;;;2.10;2.00;;;;;;;;;;5034918;28;20433;-73
2022/08/31 13:41:16;;;;;;;4.20;2.03;;;;;;;;;;5034822;28;20442;-73
2022/08/31 13:43:57;;;;;;;3.03;2.50;;;;;;;;;;5035296;28;20443;-74
2022/08/31 13:46:25;;;;;;;3.10;2.30;;;;;;;;;;5035287;28;20515;-73
2022/08/31 13:49:00;;;;;;;3.83;2.00;;;;;;;;;;5035088;28;20530;-73
2022/08/31 13:51:30;;;;;;;2.50;2.13;;;;;;;;;;5034494;28;20428;-73
2022/08/31 13:54:11;;;;;;;3.10;2.20;;;;;;;;;;5034553;28;20472;-72
2022/08/31 13:56:57;;;;;;;6.70;2.60;;;;;;;;;;5034675;28;20460;-72
2022/08/31 13:59:38;;;;;;;5.43;1.70;;;;;;;;;;5034882;28;20437;-73
2022/08/31 14:02:08;;;;;;;7.10;3.00;;;;;;;;;;5034416;28;20449;-73
2022/08/31 14:04:47;;;;;;;3.60;1.90;;;;;;;;;;5034812;28;20521;-73
2022/08/31 14:07:20;;;;;;;2.60;2.40;;;;;;;;;;5034462;28;20444;-73
2022/08/31 14:09:48;;;;;;;2.40;1.80;;;;;;;;;;5034372;28;20481;-73
2022/08/31 14:12:33;;;;;;;3.23;2.20;;;;;;;;;;5034868;28;20508;-73
2022/08/31 14:15:03;;;;;;;3.90;2.13;;;;;;;;;;5033796;28;20498;-72
2022/08/31 14:17:33;;;;;;;2.37;2.13;;;;;;;;;;5034141;28;20427;-73
2022/08/31 14:20:20;;;;;;;2.10;2.00;;;;;;;;;;5033911;28;20494;-74
2022/08/31 14:22:49;;;;;;;4.40;1.87;;;;;;;;;;5034096;28;20913;-74
2022/08/31 14:25:19;;;;;;;2.70;1.70;;;;;;;;;;5034011;28;20974;-73
2022/08/31 14:27:46;;;;;;;4.70;2.13;;;;;;;;;;5034089;28;20972;-73
2022/08/31 14:30:14;;;;;;;3.50;1.80;;;;;;;;;;5034496;28;20519;-72
2022/08/31 14:32:42;;;;;;;3.70;2.00;;;;;;;;;;5034235;28;20539;-73
2022/08/31 14:35:10;;;;;;;5.70;2.10;;;;;;;;;;5034186;28;20480;-72
2022/08/31 14:37:41;;;;;;;2.90;1.60;;;;;;;;;;5033557;28;20451;-73
2022/08/31 14:40:12;;;;;;;9.40;6.97;;;;;;;;;;5033397;28;20479;-72
2022/08/31 14:42:40;;;;;;;2.50;1.80;;;;;;;;;;5033758;28;20430;-74
2022/08/31 14:45:08;;;;;;;3.83;3.03;;;;;;;;;;5034078;28;20487;-73
2022/08/31 14:47:42;;;;;;;4.90;2.63;;;;;;;;;;5033566;28;20525;-73
2022/08/31 14:50:10;;;;;;;1.80;1.70;;;;;;;;;;5033817;28;20433;-73
2022/08/31 14:52:39;;;;;;;4.70;3.47;;;;;;;;;;5033940;28;20948;-73
2022/08/31 14:55:07;;;;;;;1.77;1.50;;;;;;;;;;5033526;28;20572;-72
2022/08/31 14:57:37;;;;;;;5.67;1.73;;;;;;;;;;5033105;28;20437;-73
2022/08/31 15:00:06;;;;;;;3.70;2.60;;;;;;;;;;5033474;28;20476;-73
2022/08/31 15:02:34;;;;;;;3.00;1.90;;;;;;;;;;5032697;28;20950;-72
2022/08/31 15:05:03;;;;;;;2.20;2.00;;;;;;;;;;5033221;28;20465;-73
2022/08/31 15:07:31;;;;;;;3.27;1.70;;;;;;;;;;5033590;28;20779;-74
2022/08/31 15:09:58;;;;;;;3.57;1.60;;;;;;;;;;5033569;28;20478;-73
2022/08/31 15:12:26;;;;;;;2.40;2.20;;;;;;;;;;5033752;28;20445;-73
2022/08/31 15:14:58;;;;;;;4.10;1.80;;;;;;;;;;5033416;28;20526;-73